createdAt,value
2023-08-22T00:04:14.618Z,3.60
2023-08-22T00:09:11.436Z,4.15
2023-08-22T00:14:08.178Z,4.60
2023-08-22T00:19:05.046Z,4.57
2023-08-22T00:24:02.212Z,4.78
2023-08-22T00:28:58.941Z,4.38
2023-08-22T00:33:55.703Z,4.47
2023-08-22T00:38:52.405Z,5.28
2023-08-22T00:43:49.224Z,4.40
2023-08-22T00:48:45.923Z,4.95
2023-08-22T00:53:43.176Z,4.63
2023-08-22T00:58:41.078Z,4.53
2023-08-22T01:03:37.947Z,4.00
2023-08-22T01:08:37.706Z,4.55
2023-08-22T01:13:38.538Z,3.95
2023-08-22T01:18:35.975Z,4.32
2023-08-22T01:23:32.844Z,4.13
2023-08-22T01:28:44.044Z,3.92
2023-08-22T01:33:48.307Z,3.60
2023-08-22T01:38:45.263Z,4.05
2023-08-22T01:43:44.486Z,3.20
2023-08-22T01:48:41.209Z,3.65
2023-08-22T01:53:37.981Z,3.75
2023-08-22T01:58:34.722Z,2.70
2023-08-22T02:03:31.488Z,2.67
2023-08-22T02:08:28.323Z,2.72
2023-08-22T02:13:25.190Z,2.10
2023-08-22T02:18:21.916Z,2.58
2023-08-22T02:23:18.661Z,2.22
2023-08-22T02:28:15.493Z,2.00
2023-08-22T02:33:12.452Z,2.35
2023-08-22T02:38:12.412Z,1.95
2023-08-22T02:43:09.216Z,2.15
2023-08-22T02:48:06.663Z,2.33
2023-08-22T02:53:04.239Z,1.92
2023-08-22T02:58:00.968Z,1.90
2023-08-22T03:02:57.976Z,3.13
2023-08-22T03:07:54.810Z,2.13
2023-08-22T03:12:51.771Z,2.22
2023-08-22T03:17:48.554Z,2.47
2023-08-22T03:22:45.323Z,2.40
2023-08-22T03:27:42.348Z,2.20
2023-08-22T03:32:39.509Z,2.25
2023-08-22T03:37:36.747Z,2.20
2023-08-22T03:42:33.539Z,1.80
2023-08-22T03:47:30.250Z,2.40
2023-08-22T03:52:27.152Z,2.78
2023-08-22T03:57:23.885Z,2.20
2023-08-22T04:02:20.908Z,2.80
2023-08-22T04:07:17.753Z,3.10
2023-08-22T04:12:14.468Z,2.92
2023-08-22T04:17:11.179Z,3.22
2023-08-22T04:22:08.218Z,2.83
2023-08-22T04:27:05.171Z,3.33
2023-08-22T04:32:05.034Z,3.15
2023-08-22T04:37:01.796Z,3.72
2023-08-22T04:41:58.557Z,4.22
2023-08-22T04:46:55.302Z,5.15
2023-08-22T04:51:52.030Z,4.55
2023-08-22T04:56:48.787Z,4.18
2023-08-22T05:01:45.619Z,4.53
2023-08-22T05:06:42.416Z,4.57
2023-08-22T05:11:39.215Z,4.53
2023-08-22T05:16:36.931Z,4.82
2023-08-22T05:21:34.147Z,4.70
2023-08-22T05:26:30.917Z,5.00
2023-08-22T05:31:28.020Z,3.83
2023-08-22T05:36:24.843Z,4.35
2023-08-22T05:41:21.919Z,4.13
2023-08-22T05:46:18.711Z,3.70
2023-08-22T05:51:15.470Z,4.07
2023-08-22T05:56:12.197Z,3.97
2023-08-22T06:01:11.123Z,4.30
2023-08-22T06:06:08.014Z,4.70
2023-08-22T06:11:04.791Z,4.43
2023-08-22T06:16:01.575Z,4.07
2023-08-22T06:21:01.756Z,4.32
2023-08-22T06:25:58.538Z,3.97
2023-08-22T06:30:55.519Z,3.75
2023-08-22T06:35:52.378Z,3.08
2023-08-22T06:40:49.085Z,2.83
2023-08-22T06:45:45.969Z,2.72
2023-08-22T06:50:43.254Z,2.97
2023-08-22T06:55:39.993Z,3.10
2023-08-22T07:00:37.128Z,2.53
2023-08-22T07:05:36.190Z,2.65
2023-08-22T07:10:33.595Z,2.40
2023-08-22T07:15:30.777Z,2.30
2023-08-22T07:20:27.493Z,2.53
2023-08-22T07:25:24.232Z,1.95
2023-08-22T07:30:21.000Z,1.98
2023-08-22T07:35:17.763Z,1.70
2023-08-22T07:40:15.403Z,2.13
2023-08-22T07:45:12.247Z,2.03
2023-08-22T07:50:09.450Z,1.92
2023-08-22T07:55:06.602Z,1.92
2023-08-22T08:00:09.413Z,1.90
2023-08-22T08:05:06.956Z,1.80
2023-08-22T08:10:05.470Z,1.88
2023-08-22T08:15:02.325Z,1.40
2023-08-22T08:19:59.442Z,1.80
2023-08-22T08:24:56.213Z,1.33
2023-08-22T08:29:53.741Z,1.60
2023-08-22T08:34:50.459Z,1.95
2023-08-22T08:39:47.364Z,1.10
2023-08-22T08:44:44.257Z,1.20
2023-08-22T08:49:41.331Z,1.25
2023-08-22T08:54:38.272Z,1.30
2023-08-22T08:59:35.133Z,1.33
2023-08-22T09:04:31.898Z,2.38
2023-08-22T09:09:34.585Z,0.90
2023-08-22T09:14:31.563Z,1.00
2023-08-22T09:19:33.381Z,1.00
2023-08-22T09:24:31.075Z,1.00
2023-08-22T09:29:32.237Z,0.90
2023-08-22T09:34:29.693Z,1.25
2023-08-22T09:39:26.820Z,0.80
2023-08-22T09:44:25.439Z,0.98
2023-08-22T09:49:23.438Z,0.82
2023-08-22T09:54:20.554Z,0.85
2023-08-22T09:59:18.893Z,0.85
2023-08-22T10:04:18.603Z,5.35
2023-08-22T10:09:17.469Z,12.23
2023-08-22T10:14:20.338Z,1.00
2023-08-22T10:19:19.593Z,1.00
2023-08-22T10:24:22.576Z,1.08
2023-08-22T10:29:19.659Z,1.10
2023-08-22T10:34:16.396Z,0.73
2023-08-22T10:44:33.877Z,0.50
2023-08-22T10:49:31.993Z,0.65
2023-08-22T10:54:30.684Z,0.50
2023-08-22T10:59:27.410Z,0.85
2023-08-22T11:04:24.435Z,0.47
2023-08-22T11:09:21.678Z,0.50
2023-08-22T11:14:18.404Z,0.70
2023-08-22T11:19:18.407Z,0.63
2023-08-22T11:24:15.201Z,0.70
2023-08-22T11:29:11.942Z,0.98
2023-08-22T11:34:08.656Z,0.70
2023-08-22T11:39:06.301Z,1.23
2023-08-22T11:44:03.019Z,0.70
2023-08-22T11:49:06.142Z,0.60
2023-08-22T11:54:03.175Z,0.77
2023-08-22T11:59:00.570Z,0.85
2023-08-22T12:03:58.270Z,1.08
2023-08-22T12:08:57.357Z,0.50
2023-08-22T12:13:54.718Z,0.50
2023-08-22T12:18:51.671Z,0.30
2023-08-22T12:23:50.730Z,0.60
2023-08-22T12:28:47.630Z,0.60
2023-08-22T12:33:44.468Z,0.70
2023-08-22T12:38:41.211Z,0.52
2023-08-22T12:43:37.976Z,0.80
2023-08-22T12:48:36.848Z,0.55
2023-08-22T12:53:33.588Z,0.40
2023-08-22T12:58:31.661Z,0.60
2023-08-22T13:03:28.608Z,0.65
2023-08-22T13:08:26.711Z,0.30
2023-08-22T13:13:23.617Z,0.73
2023-08-22T13:18:20.403Z,0.60
2023-08-22T13:23:17.143Z,0.65
2023-08-22T13:28:14.195Z,0.68
2023-08-22T13:33:11.126Z,0.60
2023-08-22T13:38:07.916Z,0.75
2023-08-22T13:43:05.091Z,1.20
2023-08-22T13:48:04.676Z,0.95
2023-08-22T13:57:58.612Z,0.90
2023-08-22T14:02:55.580Z,1.00
2023-08-22T14:07:52.311Z,0.80
2023-08-22T14:12:49.010Z,1.10
2023-08-22T14:17:45.943Z,1.20
2023-08-22T14:22:43.499Z,0.95
2023-08-22T14:27:40.549Z,1.15
2023-08-22T14:32:37.277Z,1.42
2023-08-22T14:37:34.847Z,1.40
2023-08-22T14:42:31.558Z,1.20
2023-08-22T14:47:28.298Z,1.38
2023-08-22T14:52:25.084Z,1.40
2023-08-22T14:57:22.128Z,1.13
2023-08-22T15:02:18.865Z,1.27
2023-08-22T15:07:15.579Z,1.40
2023-08-22T15:12:12.327Z,1.35
2023-08-22T15:17:09.070Z,1.27
2023-08-22T15:22:05.964Z,1.42
2023-08-22T15:27:02.762Z,1.40
2023-08-22T15:31:59.514Z,1.70
2023-08-22T15:36:56.244Z,1.70
2023-08-22T15:41:52.969Z,1.50
2023-08-22T15:46:49.753Z,1.40
2023-08-22T15:51:46.636Z,1.35
2023-08-22T15:56:43.415Z,1.42
2023-08-22T16:01:40.148Z,1.13
2023-08-22T16:06:36.968Z,1.55
2023-08-22T16:11:33.683Z,1.45
2023-08-22T16:16:30.422Z,1.50
2023-08-22T16:21:27.189Z,1.52
2023-08-22T16:26:24.258Z,1.20
2023-08-22T16:31:21.476Z,1.30
2023-08-22T16:36:18.282Z,1.58
2023-08-22T16:41:15.060Z,1.40
2023-08-22T16:46:11.863Z,1.52
2023-08-22T16:51:09.333Z,1.45
2023-08-22T16:56:06.061Z,1.30
2023-08-22T17:01:02.806Z,1.40
2023-08-22T17:05:59.617Z,1.15
2023-08-22T17:11:04.761Z,1.42
2023-08-22T17:16:01.652Z,1.33
2023-08-22T17:20:58.476Z,0.95
2023-08-22T17:26:13.201Z,1.77
2023-08-22T17:31:11.684Z,1.52
2023-08-22T17:36:11.146Z,1.58
2023-08-22T17:41:09.648Z,2.03
2023-08-22T17:46:06.570Z,1.10
2023-08-22T17:51:04.696Z,1.50
2023-08-22T17:56:01.443Z,1.30
2023-08-22T18:00:58.188Z,1.25
2023-08-22T18:06:00.307Z,1.50
2023-08-22T18:10:58.868Z,1.85
2023-08-22T18:16:10.056Z,1.58
2023-08-22T18:21:09.694Z,1.10
2023-08-22T18:26:09.064Z,1.40
2023-08-22T18:31:24.706Z,1.45
2023-08-22T18:36:24.543Z,1.27
2023-08-22T18:41:21.704Z,1.30
2023-08-22T18:46:19.345Z,1.30
2023-08-22T18:51:16.135Z,1.00
2023-08-22T18:56:12.897Z,1.20
2023-08-22T19:01:10.001Z,1.35
2023-08-22T19:06:06.792Z,1.50
2023-08-22T19:11:07.018Z,1.17
2023-08-22T19:16:07.330Z,1.33
2023-08-22T19:21:04.135Z,1.00
2023-08-22T19:26:02.196Z,1.05
2023-08-22T19:30:59.673Z,1.27
2023-08-22T19:35:57.186Z,1.38
2023-08-22T19:40:56.386Z,2.47
2023-08-22T19:45:53.233Z,1.17
2023-08-22T19:50:50.430Z,1.55
2023-08-22T19:55:48.113Z,1.50
2023-08-22T20:00:47.408Z,1.80
2023-08-22T20:05:45.734Z,2.00
2023-08-22T20:10:42.498Z,1.85
2023-08-22T20:15:39.325Z,2.28
2023-08-22T20:20:36.057Z,4.25
2023-08-22T20:25:35.688Z,4.70
2023-08-22T20:30:35.136Z,3.30
2023-08-22T20:35:32.121Z,2.10
2023-08-22T20:40:28.884Z,2.03
2023-08-22T20:45:25.777Z,5.13
2023-08-22T20:50:22.604Z,6.43
2023-08-22T20:55:19.322Z,3.33
2023-08-22T21:00:19.386Z,2.13
2023-08-22T21:05:17.213Z,1.70
2023-08-22T21:10:13.997Z,1.45
2023-08-22T21:15:11.149Z,3.40
2023-08-22T21:20:10.369Z,1.73
2023-08-22T21:25:08.145Z,1.85
2023-08-22T21:30:05.364Z,1.77
2023-08-22T21:35:02.143Z,1.67
2023-08-22T21:39:58.892Z,1.75
2023-08-22T21:44:55.661Z,2.00
2023-08-22T21:49:55.820Z,1.48
2023-08-22T21:54:52.567Z,1.90
2023-08-22T21:59:49.288Z,1.35
2023-08-22T22:04:46.035Z,1.30
2023-08-22T22:09:43.239Z,1.48
2023-08-22T22:14:40.033Z,2.15
2023-08-22T22:19:36.812Z,0.90
2023-08-22T22:24:33.597Z,1.40
2023-08-22T22:29:30.340Z,1.27
2023-08-22T22:34:27.171Z,1.20
2023-08-22T22:39:24.259Z,1.30
2023-08-22T22:44:21.014Z,1.00
2023-08-22T22:49:17.801Z,1.40
2023-08-22T22:54:14.540Z,1.60
2023-08-22T22:59:12.393Z,1.75
2023-08-22T23:04:09.229Z,1.35
2023-08-22T23:09:06.192Z,1.20
2023-08-22T23:14:03.001Z,1.30
2023-08-22T23:18:59.737Z,1.48
2023-08-22T23:23:56.497Z,1.40
2023-08-22T23:28:53.549Z,1.63
2023-08-22T23:33:50.601Z,2.00
2023-08-22T23:38:47.325Z,1.15
2023-08-22T23:43:44.114Z,1.30
2023-08-22T23:48:40.840Z,2.00
2023-08-22T23:53:37.562Z,1.63
2023-08-22T23:58:35.929Z,1.40
